createdAt,value
2018-06-20T00:00:02.829Z,935.95
2018-06-20T00:00:15.755Z,935.92
2018-06-20T00:00:28.732Z,935.9
2018-06-20T00:00:41.695Z,935.9
2018-06-20T00:00:54.196Z,935.94
2018-06-20T00:01:06.692Z,935.94
2018-06-20T00:01:19.675Z,935.95
2018-06-20T00:01:32.115Z,935.96
2018-06-20T00:01:44.617Z,935.95
2018-06-20T00:01:57.607Z,935.89
2018-06-20T00:02:10.064Z,935.89
2018-06-20T00:02:22.558Z,935.91
2018-06-20T00:02:34.611Z,935.93
2018-06-20T00:02:47.146Z,935.93
2018-06-20T00:02:59.632Z,935.94
2018-06-20T00:03:12.134Z,935.93
2018-06-20T00:03:24.635Z,935.91
2018-06-20T00:03:37.599Z,935.9
2018-06-20T00:03:50.114Z,935.93
2018-06-20T00:04:02.643Z,935.91
2018-06-20T00:04:15.188Z,935.9
2018-06-20T00:04:27.211Z,935.92
2018-06-20T00:04:40.118Z,935.9
2018-06-20T00:04:52.620Z,935.91
2018-06-20T00:05:05.159Z,935.9
2018-06-20T00:05:18.110Z,935.9
2018-06-20T00:05:31.050Z,935.89
2018-06-20T00:05:44.016Z,935.89
2018-06-20T00:05:56.952Z,935.88
2018-06-20T00:06:09.019Z,935.87
2018-06-20T00:06:22.070Z,935.85
2018-06-20T00:06:35.057Z,935.87
2018-06-20T00:06:47.518Z,935.9
2018-06-20T00:07:00.461Z,935.87
2018-06-20T00:07:13.388Z,935.88
2018-06-20T00:07:26.537Z,935.92
2018-06-20T00:07:39.052Z,935.91
2018-06-20T00:07:50.657Z,935.9
2018-06-20T00:08:03.182Z,935.87
2018-06-20T00:08:16.156Z,935.94
2018-06-20T00:08:29.199Z,935.9
2018-06-20T00:08:42.217Z,935.93
2018-06-20T00:08:55.121Z,935.89
2018-06-20T00:09:07.613Z,935.92
2018-06-20T00:09:20.568Z,935.89
2018-06-20T00:09:32.578Z,935.88
2018-06-20T00:09:45.165Z,935.92
2018-06-20T00:09:58.126Z,935.91
2018-06-20T00:10:11.162Z,935.93
2018-06-20T00:10:24.206Z,935.9
2018-06-20T00:10:37.174Z,935.92
2018-06-20T00:10:50.172Z,935.89
2018-06-20T00:11:02.656Z,935.89
2018-06-20T00:11:15.560Z,935.92
2018-06-20T00:11:28.555Z,935.89
2018-06-20T00:11:41.554Z,935.89
2018-06-20T00:11:54.084Z,935.91
2018-06-20T00:12:06.547Z,935.92
2018-06-20T00:12:19.529Z,935.9
2018-06-20T00:12:32.030Z,935.88
2018-06-20T00:12:44.095Z,935.93
2018-06-20T00:12:57.055Z,935.9
2018-06-20T00:13:09.551Z,935.89
2018-06-20T00:13:22.510Z,935.89
2018-06-20T00:13:35.036Z,935.87
2018-06-20T00:13:47.496Z,935.9
2018-06-20T00:14:00.478Z,935.94
2018-06-20T00:14:13.436Z,935.88
2018-06-20T00:14:25.939Z,935.91
2018-06-20T00:14:37.512Z,935.89
2018-06-20T00:14:50.020Z,935.88
2018-06-20T00:15:02.531Z,935.88
2018-06-20T00:15:14.603Z,935.87
2018-06-20T00:15:27.592Z,935.86
2018-06-20T00:15:40.149Z,935.85
2018-06-20T00:15:53.172Z,935.87
2018-06-20T00:16:05.706Z,935.87
2018-06-20T00:16:18.167Z,935.88
2018-06-20T00:16:30.634Z,935.85
2018-06-20T00:16:42.676Z,935.82
2018-06-20T00:16:55.621Z,935.83
2018-06-20T00:17:08.591Z,935.87
2018-06-20T00:17:21.560Z,935.89
2018-06-20T00:17:34.524Z,935.86
2018-06-20T00:17:46.570Z,935.86
2018-06-20T00:17:59.538Z,935.87
2018-06-20T00:18:12.534Z,935.86
2018-06-20T00:18:25.070Z,935.88
2018-06-20T00:18:37.105Z,935.9
2018-06-20T00:18:50.135Z,935.86
2018-06-20T00:19:02.633Z,935.86
2018-06-20T00:19:15.176Z,935.89
2018-06-20T00:19:27.214Z,935.85
2018-06-20T00:19:40.177Z,935.85
2018-06-20T00:19:53.134Z,935.85
2018-06-20T00:20:06.089Z,935.88
2018-06-20T00:20:19.074Z,935.85
2018-06-20T00:20:31.115Z,935.84
2018-06-20T00:20:43.657Z,935.88
2018-06-20T00:20:56.638Z,935.85
2018-06-20T00:21:08.704Z,935.89
2018-06-20T00:21:21.673Z,935.87
2018-06-20T00:21:34.677Z,935.85
2018-06-20T00:21:47.627Z,935.88
2018-06-20T00:22:00.661Z,935.89
2018-06-20T00:22:13.181Z,935.88
2018-06-20T00:22:25.189Z,935.86
2018-06-20T00:22:37.226Z,935.89
2018-06-20T00:22:50.217Z,935.88
2018-06-20T00:23:03.190Z,935.86
2018-06-20T00:23:15.700Z,935.86
2018-06-20T00:23:28.642Z,935.84
2018-06-20T00:23:40.650Z,935.91
2018-06-20T00:23:53.591Z,935.88
2018-06-20T00:24:06.545Z,935.89
2018-06-20T00:24:19.452Z,935.93
2018-06-20T00:24:31.500Z,935.87
2018-06-20T00:24:43.532Z,935.9
2018-06-20T00:24:56.531Z,935.92
2018-06-20T00:25:08.967Z,935.91
2018-06-20T00:25:21.908Z,935.91
2018-06-20T00:25:34.839Z,935.89
2018-06-20T00:25:47.809Z,935.91
2018-06-20T00:26:00.838Z,935.89
2018-06-20T00:26:13.353Z,935.93
2018-06-20T00:26:26.325Z,935.9
2018-06-20T00:26:38.802Z,935.9
2018-06-20T00:26:51.309Z,935.91
2018-06-20T00:27:04.341Z,935.92
2018-06-20T00:27:17.256Z,935.93
2018-06-20T00:27:29.793Z,935.89
2018-06-20T00:27:42.754Z,935.91
2018-06-20T00:27:54.783Z,935.95
2018-06-20T00:28:07.737Z,935.93
2018-06-20T00:28:20.242Z,935.92
2018-06-20T00:28:32.700Z,935.92
2018-06-20T00:28:45.116Z,935.91
2018-06-20T00:28:57.641Z,935.92
2018-06-20T00:29:10.175Z,935.92
2018-06-20T00:29:23.957Z,935.92
2018-06-20T00:29:36.941Z,935.94
2018-06-20T00:29:49.505Z,935.96
2018-06-20T00:30:02.035Z,935.92
2018-06-20T00:30:14.512Z,935.92
2018-06-20T00:30:27.458Z,935.95
2018-06-20T00:30:40.428Z,935.96
2018-06-20T00:30:52.426Z,935.94
2018-06-20T00:31:04.911Z,935.95
2018-06-20T00:31:17.395Z,935.98
2018-06-20T00:31:29.879Z,935.96
2018-06-20T00:31:42.820Z,935.96
2018-06-20T00:31:55.350Z,935.94
2018-06-20T00:32:06.930Z,935.93
2018-06-20T00:32:19.889Z,935.99
2018-06-20T00:32:32.873Z,935.96
2018-06-20T00:32:45.453Z,935.92
2018-06-20T00:32:58.006Z,935.89
2018-06-20T00:33:11.001Z,935.98
2018-06-20T00:33:23.963Z,935.99
2018-06-20T00:33:36.874Z,935.94
2018-06-20T00:33:49.835Z,935.98
2018-06-20T00:34:02.371Z,935.98
2018-06-20T00:34:14.893Z,935.98
2018-06-20T00:34:27.861Z,935.96
2018-06-20T00:34:40.355Z,935.96
2018-06-20T00:34:53.335Z,935.99
2018-06-20T00:35:06.292Z,935.97
2018-06-20T00:35:18.808Z,936
2018-06-20T00:35:30.845Z,935.96
2018-06-20T00:35:43.309Z,935.98
2018-06-20T00:35:55.875Z,936
2018-06-20T00:36:08.881Z,935.99
2018-06-20T00:36:20.944Z,936
2018-06-20T00:36:33.932Z,935.99
2018-06-20T00:36:46.943Z,935.97
2018-06-20T00:36:59.919Z,936
2018-06-20T00:37:11.496Z,935.97
2018-06-20T00:37:24.003Z,936.01
2018-06-20T00:37:36.913Z,935.98
2018-06-20T00:37:49.389Z,935.95
2018-06-20T00:38:01.466Z,935.96
2018-06-20T00:38:13.995Z,935.91
2018-06-20T00:38:26.979Z,935.97
2018-06-20T00:38:39.426Z,935.94
2018-06-20T00:38:51.957Z,935.95
2018-06-20T00:39:04.528Z,935.94
2018-06-20T00:39:17.488Z,935.98
2018-06-20T00:39:30.444Z,935.96
2018-06-20T00:39:42.940Z,935.98
2018-06-20T00:39:55.884Z,935.95
2018-06-20T00:40:08.856Z,935.96
2018-06-20T00:40:21.361Z,935.97
2018-06-20T00:40:34.334Z,935.96
2018-06-20T00:40:46.430Z,935.97
2018-06-20T00:40:58.934Z,935.96
2018-06-20T00:41:11.438Z,935.98
2018-06-20T00:41:23.927Z,935.95
2018-06-20T00:41:36.961Z,935.92
2018-06-20T00:41:49.954Z,935.93
2018-06-20T00:42:02.478Z,935.95
2018-06-20T00:42:14.043Z,935.96
2018-06-20T00:42:26.122Z,935.98
2018-06-20T00:42:39.085Z,935.93
2018-06-20T00:42:51.596Z,935.94
2018-06-20T00:43:04.076Z,935.95
2018-06-20T00:43:16.560Z,935.95
2018-06-20T00:43:29.055Z,935.94
2018-06-20T00:43:41.517Z,935.98
2018-06-20T00:43:53.615Z,935.95
2018-06-20T00:44:06.643Z,935.96
2018-06-20T00:44:19.100Z,935.96
2018-06-20T00:44:31.143Z,935.95
2018-06-20T00:44:44.147Z,935.93
2018-06-20T00:44:56.670Z,935.97
2018-06-20T00:45:09.170Z,935.98
2018-06-20T00:45:22.178Z,935.98
2018-06-20T00:45:35.157Z,935.95
2018-06-20T00:45:47.647Z,935.94
2018-06-20T00:45:59.720Z,935.98
2018-06-20T00:46:12.222Z,936.01
2018-06-20T00:46:25.231Z,935.99
2018-06-20T00:46:37.707Z,935.99
2018-06-20T00:46:50.658Z,935.97
2018-06-20T00:47:03.625Z,935.96
2018-06-20T00:47:16.156Z,936.03
2018-06-20T00:47:29.143Z,935.99
2018-06-20T00:47:41.195Z,936.01
2018-06-20T00:47:53.610Z,935.96
2018-06-20T00:48:06.570Z,935.95
2018-06-20T00:48:19.060Z,935.97
2018-06-20T00:48:31.570Z,936.02
2018-06-20T00:48:43.582Z,935.95
2018-06-20T00:48:56.508Z,936.01
2018-06-20T00:49:08.996Z,935.98
2018-06-20T00:49:21.549Z,935.98
2018-06-20T00:49:34.069Z,935.96
2018-06-20T00:49:46.581Z,936
2018-06-20T00:49:59.578Z,935.98
2018-06-20T00:50:11.622Z,935.96
2018-06-20T00:50:24.095Z,935.97
2018-06-20T00:50:36.116Z,936.01
2018-06-20T00:50:48.659Z,935.99
2018-06-20T00:51:01.644Z,935.98
2018-06-20T00:51:14.114Z,936.01
2018-06-20T00:51:26.650Z,936.02
2018-06-20T00:51:38.719Z,935.99
2018-06-20T00:51:51.663Z,936.04
2018-06-20T00:52:04.680Z,936.04
2018-06-20T00:52:17.646Z,936.03
2018-06-20T00:52:30.602Z,936.02
2018-06-20T00:52:43.117Z,936
2018-06-20T00:52:55.156Z,935.99
2018-06-20T00:53:07.624Z,936
2018-06-20T00:53:20.626Z,936.05
2018-06-20T00:53:33.571Z,936
2018-06-20T00:53:46.133Z,936.04
2018-06-20T00:53:58.204Z,936
2018-06-20T00:54:11.223Z,936
2018-06-20T00:54:23.690Z,936.01
2018-06-20T00:54:36.673Z,936.03
2018-06-20T00:54:49.163Z,936.04
2018-06-20T00:55:01.651Z,936.01
2018-06-20T00:55:14.165Z,936
2018-06-20T00:55:26.633Z,936.01
2018-06-20T00:55:39.604Z,936.02
2018-06-20T00:55:52.575Z,935.99
2018-06-20T00:56:04.634Z,935.99
2018-06-20T00:56:17.568Z,935.99
2018-06-20T00:56:30.053Z,936.01
2018-06-20T00:56:42.990Z,936
2018-06-20T00:56:54.595Z,936
2018-06-20T00:57:06.666Z,936.03
2018-06-20T00:57:18.713Z,936.01
2018-06-20T00:57:31.705Z,936.02
2018-06-20T00:57:44.656Z,936.03
2018-06-20T00:57:57.168Z,936.01
2018-06-20T00:58:09.707Z,936.04
2018-06-20T00:58:22.734Z,935.99
2018-06-20T00:58:35.725Z,936.01
2018-06-20T00:58:48.699Z,935.99
2018-06-20T00:59:01.260Z,936
2018-06-20T00:59:13.782Z,936.03
2018-06-20T00:59:26.746Z,936.02
2018-06-20T00:59:40.655Z,936.02
2018-06-20T00:59:53.598Z,936
2018-06-20T01:00:05.586Z,935.99
2018-06-20T01:00:17.576Z,936.03
2018-06-20T01:00:30.052Z,935.99
2018-06-20T01:00:42.585Z,935.98
2018-06-20T01:00:54.635Z,935.99
2018-06-20T01:01:07.145Z,936
2018-06-20T01:01:20.109Z,936.01
2018-06-20T01:01:33.109Z,936.03
2018-06-20T01:01:45.190Z,936.01
2018-06-20T01:01:58.140Z,935.98
2018-06-20T01:02:11.066Z,935.99
2018-06-20T01:02:23.560Z,936.02
2018-06-20T01:02:36.473Z,936.01
2018-06-20T01:02:48.986Z,936.02
2018-06-20T01:03:01.963Z,936.03
2018-06-20T01:03:15.000Z,935.96
2018-06-20T01:03:27.505Z,936.02
2018-06-20T01:03:40.481Z,936.01
2018-06-20T01:03:53.523Z,936.01
2018-06-20T01:04:06.049Z,936.02
2018-06-20T01:04:18.549Z,936.03
2018-06-20T01:04:31.095Z,936.03
2018-06-20T01:04:44.093Z,936
2018-06-20T01:04:57.058Z,936.04
2018-06-20T01:05:10.032Z,936.01
2018-06-20T01:05:22.060Z,935.99
2018-06-20T01:05:35.050Z,936.04
2018-06-20T01:05:47.562Z,936.03
2018-06-20T01:06:00.044Z,936.01
2018-06-20T01:06:12.979Z,936.01
2018-06-20T01:06:25.472Z,936
2018-06-20T01:06:37.541Z,936.01
2018-06-20T01:06:50.505Z,935.99
2018-06-20T01:07:03.522Z,936.02
2018-06-20T01:07:16.451Z,935.99
2018-06-20T01:07:28.949Z,936.02
2018-06-20T01:07:41.876Z,936
2018-06-20T01:07:54.400Z,935.99
2018-06-20T01:08:06.488Z,935.99
2018-06-20T01:08:19.449Z,936.01
2018-06-20T01:08:32.418Z,936.02
2018-06-20T01:08:44.909Z,936.02
2018-06-20T01:08:57.394Z,936.01
2018-06-20T01:09:09.441Z,936.03
2018-06-20T01:09:21.938Z,936.02
2018-06-20T01:09:34.893Z,936.02
2018-06-20T01:09:47.847Z,936.03
2018-06-20T01:10:00.809Z,936.04
2018-06-20T01:10:12.845Z,936.03
2018-06-20T01:10:25.806Z,936.06
2018-06-20T01:10:38.751Z,936.09
2018-06-20T01:10:51.748Z,936.08
2018-06-20T01:11:04.788Z,936.08
2018-06-20T01:11:17.721Z,936.05
2018-06-20T01:11:30.775Z,936.08
2018-06-20T01:11:44.308Z,936.07
2018-06-20T01:11:58.501Z,936.1
2018-06-20T01:12:10.445Z,936.09
2018-06-20T01:12:22.496Z,936.1
2018-06-20T01:12:35.008Z,936.13
2018-06-20T01:12:47.976Z,936.13
2018-06-20T01:13:00.518Z,936.11
2018-06-20T01:13:13.550Z,936.15
2018-06-20T01:13:26.549Z,936.15
2018-06-20T01:13:38.624Z,936.17
2018-06-20T01:13:51.141Z,936.15
2018-06-20T01:14:03.162Z,936.16
2018-06-20T01:14:16.143Z,936.15
2018-06-20T01:14:28.653Z,936.15
2018-06-20T01:14:41.848Z,936.15
2018-06-20T01:14:54.838Z,936.14
2018-06-20T01:15:07.350Z,936.14
2018-06-20T01:15:20.347Z,936.12
2018-06-20T01:15:32.877Z,936.13
2018-06-20T01:15:45.333Z,936.17
2018-06-20T01:15:57.748Z,936.16
2018-06-20T01:16:10.725Z,936.13
2018-06-20T01:16:23.240Z,936.17
2018-06-20T01:16:35.710Z,936.13
2018-06-20T01:16:48.201Z,936.13
2018-06-20T01:17:01.208Z,936.12
2018-06-20T01:17:13.754Z,936.16
2018-06-20T01:17:25.821Z,936.14
2018-06-20T01:17:38.850Z,936.16
2018-06-20T01:17:51.347Z,936.17
2018-06-20T01:18:04.352Z,936.2
2018-06-20T01:18:16.934Z,936.19
2018-06-20T01:18:29.947Z,936.17
2018-06-20T01:18:42.938Z,936.17
2018-06-20T01:18:55.409Z,936.14
2018-06-20T01:19:08.381Z,936.16
2018-06-20T01:19:20.881Z,936.2
2018-06-20T01:19:33.824Z,936.19
2018-06-20T01:19:46.835Z,936.15
2018-06-20T01:19:59.316Z,936.2
2018-06-20T01:20:11.811Z,936.15
2018-06-20T01:20:23.918Z,936.17
2018-06-20T01:20:36.427Z,936.13
2018-06-20T01:20:48.932Z,936.14
2018-06-20T01:21:01.425Z,936.14
2018-06-20T01:21:13.919Z,936.16
2018-06-20T01:21:26.473Z,936.15
2018-06-20T01:21:38.931Z,936.13
2018-06-20T01:21:51.447Z,936.15
2018-06-20T01:22:03.953Z,936.16
2018-06-20T01:22:16.505Z,936.17
2018-06-20T01:22:28.519Z,936.14
2018-06-20T01:22:41.064Z,936.19
2018-06-20T01:22:53.654Z,936.17
2018-06-20T01:23:05.212Z,936.14
2018-06-20T01:23:17.797Z,936.19
2018-06-20T01:23:30.807Z,936.14
2018-06-20T01:23:43.813Z,936.15
2018-06-20T01:23:56.803Z,936.11
2018-06-20T01:24:09.290Z,936.13
2018-06-20T01:24:21.317Z,936.13
2018-06-20T01:24:33.346Z,936.12
2018-06-20T01:24:46.306Z,936.16
2018-06-20T01:24:59.317Z,936.21
2018-06-20T01:25:11.869Z,936.18
2018-06-20T01:25:23.921Z,936.15
2018-06-20T01:25:36.869Z,936.12
2018-06-20T01:25:49.390Z,936.12
2018-06-20T01:26:01.406Z,936.11
2018-06-20T01:26:13.923Z,936.15
2018-06-20T01:26:26.870Z,936.09
2018-06-20T01:26:39.376Z,936.1
2018-06-20T01:26:51.364Z,936.11
2018-06-20T01:27:03.432Z,936.12
2018-06-20T01:27:15.020Z,936.15
2018-06-20T01:27:27.973Z,936.12
2018-06-20T01:27:40.487Z,936.12
2018-06-20T01:27:53.456Z,936.12
2018-06-20T01:28:06.439Z,936.12
2018-06-20T01:28:17.952Z,936.09
2018-06-20T01:28:30.899Z,936.12
2018-06-20T01:28:42.953Z,936.1
2018-06-20T01:28:55.472Z,936.1
2018-06-20T01:29:07.992Z,936.11
2018-06-20T01:29:20.981Z,936.13
2018-06-20T01:29:33.962Z,936.11
2018-06-20T01:29:47.800Z,936.12
2018-06-20T01:30:00.728Z,936.12
2018-06-20T01:30:13.206Z,936.11
2018-06-20T01:30:26.166Z,936.1
2018-06-20T01:30:38.209Z,936.13
2018-06-20T01:30:50.259Z,936.14
2018-06-20T01:31:02.721Z,936.08
2018-06-20T01:31:15.659Z,936.11
2018-06-20T01:31:28.131Z,936.1
2018-06-20T01:31:40.617Z,936.15
2018-06-20T01:31:53.132Z,936.1
2018-06-20T01:32:05.248Z,936.13
2018-06-20T01:32:17.924Z,936.11
2018-06-20T01:32:30.824Z,936.13
2018-06-20T01:32:43.754Z,936.13
2018-06-20T01:32:56.258Z,936.11
2018-06-20T01:33:08.747Z,936.1
2018-06-20T01:33:21.739Z,936.1
2018-06-20T01:33:34.187Z,936.1
2018-06-20T01:33:47.106Z,936.1
2018-06-20T01:34:00.120Z,936.1
2018-06-20T01:34:12.646Z,936.14
2018-06-20T01:34:25.137Z,936.11
2018-06-20T01:34:37.106Z,936.13
2018-06-20T01:34:50.123Z,936.1
2018-06-20T01:35:01.723Z,936.11
2018-06-20T01:35:14.271Z,936.12
2018-06-20T01:35:27.259Z,936.1
2018-06-20T01:35:39.797Z,936.11
2018-06-20T01:35:52.750Z,936.11
2018-06-20T01:36:05.241Z,936.12
2018-06-20T01:36:17.252Z,936.1
2018-06-20T01:36:28.849Z,936.09
2018-06-20T01:36:41.793Z,936.09
2018-06-20T01:36:53.878Z,936.09
2018-06-20T01:37:06.869Z,936.07
2018-06-20T01:37:19.332Z,936.06
2018-06-20T01:37:31.406Z,936.07
2018-06-20T01:37:44.433Z,936.08
2018-06-20T01:37:57.376Z,936.09
2018-06-20T01:38:09.871Z,936.08
2018-06-20T01:38:22.836Z,936.06
2018-06-20T01:38:34.392Z,936.04
2018-06-20T01:38:46.909Z,936.03
2018-06-20T01:38:59.933Z,936.06
2018-06-20T01:39:12.448Z,936.04
2018-06-20T01:39:24.963Z,936.08
2018-06-20T01:39:37.938Z,936.06
2018-06-20T01:39:50.404Z,936.06
2018-06-20T01:40:02.957Z,936.06
2018-06-20T01:40:14.975Z,936.07
2018-06-20T01:40:27.445Z,936.06
2018-06-20T01:40:39.919Z,936.03
2018-06-20T01:40:52.930Z,936.06
2018-06-20T01:41:05.416Z,936.07
2018-06-20T01:41:16.974Z,936.06
2018-06-20T01:41:29.915Z,936.04
2018-06-20T01:41:42.855Z,936.04
2018-06-20T01:41:55.840Z,936.05
2018-06-20T01:42:08.399Z,936.05
2018-06-20T01:42:20.461Z,936.07
2018-06-20T01:42:33.471Z,936.05
2018-06-20T01:42:45.974Z,936.04
2018-06-20T01:42:58.500Z,936.05
2018-06-20T01:43:10.517Z,935.99
2018-06-20T01:43:23.493Z,936.03
2018-06-20T01:43:36.430Z,936.01
2018-06-20T01:43:49.398Z,936
2018-06-20T01:44:01.916Z,936.03
2018-06-20T01:44:14.371Z,936.02
2018-06-20T01:44:27.386Z,935.99
2018-06-20T01:44:39.920Z,936.02
2018-06-20T01:44:53.140Z,936.01
2018-06-20T01:45:05.672Z,936.01
2018-06-20T01:45:17.687Z,935.98
2018-06-20T01:45:30.632Z,935.98
2018-06-20T01:45:42.706Z,936
2018-06-20T01:45:55.661Z,935.98
2018-06-20T01:46:08.120Z,935.99
2018-06-20T01:46:20.210Z,936
2018-06-20T01:46:32.669Z,936
2018-06-20T01:46:45.185Z,935.99
2018-06-20T01:46:57.717Z,935.98
2018-06-20T01:47:10.202Z,936
2018-06-20T01:47:22.215Z,935.99
2018-06-20T01:47:34.213Z,935.97
2018-06-20T01:47:46.740Z,935.97
2018-06-20T01:47:59.724Z,936
2018-06-20T01:48:11.794Z,935.99
2018-06-20T01:48:24.728Z,935.97
2018-06-20T01:48:36.834Z,935.97
2018-06-20T01:48:49.384Z,935.94
2018-06-20T01:49:01.856Z,935.97
2018-06-20T01:49:14.366Z,935.98
2018-06-20T01:49:27.345Z,935.96
2018-06-20T01:49:39.789Z,936
2018-06-20T01:49:52.325Z,936
2018-06-20T01:50:04.865Z,935.98
2018-06-20T01:50:17.414Z,936
2018-06-20T01:50:29.931Z,935.98
2018-06-20T01:50:42.864Z,935.98
2018-06-20T01:50:55.890Z,935.97
2018-06-20T01:51:08.437Z,935.97
2018-06-20T01:51:20.500Z,935.96
2018-06-20T01:51:32.567Z,935.98
2018-06-20T01:51:44.619Z,935.99
2018-06-20T01:51:57.143Z,935.99
2018-06-20T01:52:09.194Z,935.96
2018-06-20T01:52:21.237Z,935.96
2018-06-20T01:52:33.727Z,935.95
2018-06-20T01:52:46.725Z,935.96
2018-06-20T01:52:59.705Z,935.96
2018-06-20T01:53:11.771Z,935.98
2018-06-20T01:53:24.306Z,935.95
2018-06-20T01:53:36.819Z,935.97
2018-06-20T01:53:49.297Z,935.95
2018-06-20T01:54:02.252Z,935.93
2018-06-20T01:54:14.319Z,935.96
2018-06-20T01:54:26.816Z,935.93
2018-06-20T01:54:38.863Z,935.96
2018-06-20T01:54:51.828Z,935.96
2018-06-20T01:55:03.881Z,935.96
2018-06-20T01:55:16.388Z,935.9
2018-06-20T01:55:28.473Z,935.93
2018-06-20T01:55:41.210Z,935.95
2018-06-20T01:55:54.523Z,935.96
2018-06-20T01:56:06.576Z,935.92
2018-06-20T01:56:19.096Z,935.93
2018-06-20T01:56:32.087Z,935.93
2018-06-20T01:56:45.072Z,935.94
2018-06-20T01:56:57.594Z,935.93
2018-06-20T01:57:10.594Z,935.93
2018-06-20T01:57:23.085Z,935.91
2018-06-20T01:57:35.568Z,935.89
2018-06-20T01:57:48.539Z,935.93
2018-06-20T01:58:01.489Z,935.91
2018-06-20T01:58:14.007Z,935.88
2018-06-20T01:58:26.990Z,935.88
2018-06-20T01:58:39.961Z,935.9
2018-06-20T01:58:52.892Z,935.92
2018-06-20T01:59:05.405Z,935.85
2018-06-20T01:59:17.872Z,935.9
2018-06-20T01:59:30.873Z,935.9
2018-06-20T01:59:43.478Z,935.91
2018-06-20T01:59:57.571Z,935.9
2018-06-20T02:00:10.101Z,935.91
2018-06-20T02:00:23.142Z,935.93
2018-06-20T02:00:36.157Z,935.91
2018-06-20T02:00:49.138Z,935.91
2018-06-20T02:01:02.137Z,935.9
2018-06-20T02:01:14.631Z,935.93
2018-06-20T02:01:27.625Z,935.91
2018-06-20T02:01:39.683Z,935.9
2018-06-20T02:01:52.616Z,935.91
2018-06-20T02:02:05.079Z,935.91
2018-06-20T02:02:17.527Z,935.92
2018-06-20T02:02:29.587Z,935.94
2018-06-20T02:02:42.593Z,935.92
2018-06-20T02:02:54.598Z,935.94
2018-06-20T02:03:07.630Z,935.91
2018-06-20T02:03:20.119Z,935.92
2018-06-20T02:03:33.076Z,935.94
2018-06-20T02:03:46.076Z,935.98
2018-06-20T02:03:59.020Z,935.94
2018-06-20T02:04:11.124Z,935.93
2018-06-20T02:04:23.667Z,935.89
2018-06-20T02:04:35.693Z,935.93
2018-06-20T02:04:48.189Z,935.91
2018-06-20T02:05:00.716Z,935.93
2018-06-20T02:05:13.268Z,935.94
2018-06-20T02:05:26.257Z,935.9
2018-06-20T02:05:39.290Z,935.92
2018-06-20T02:05:51.756Z,935.91
2018-06-20T02:06:04.721Z,935.95
2018-06-20T02:06:17.776Z,935.91
2018-06-20T02:06:29.840Z,935.94
2018-06-20T02:06:42.784Z,935.92
2018-06-20T02:06:55.810Z,935.92
2018-06-20T02:07:07.857Z,935.97
2018-06-20T02:07:19.908Z,935.93
2018-06-20T02:07:32.428Z,935.89
2018-06-20T02:07:45.452Z,935.96
2018-06-20T02:07:57.950Z,935.96
2018-06-20T02:08:10.946Z,935.93
2018-06-20T02:08:23.426Z,935.91
2018-06-20T02:08:35.464Z,935.93
2018-06-20T02:08:48.422Z,935.93
2018-06-20T02:09:01.371Z,935.96
2018-06-20T02:09:13.903Z,935.97
2018-06-20T02:09:25.981Z,935.97
2018-06-20T02:09:38.037Z,935.92
2018-06-20T02:09:51.035Z,935.91
2018-06-20T02:10:03.581Z,935.93
2018-06-20T02:10:16.073Z,935.9
2018-06-20T02:10:28.621Z,935.91
2018-06-20T02:10:41.660Z,935.91
2018-06-20T02:10:54.653Z,935.88
2018-06-20T02:11:06.723Z,935.89
2018-06-20T02:11:19.690Z,935.87
2018-06-20T02:11:32.197Z,935.91
2018-06-20T02:11:44.693Z,935.9
2018-06-20T02:11:57.240Z,935.88
2018-06-20T02:12:09.259Z,935.89
2018-06-20T02:12:21.297Z,935.89
2018-06-20T02:12:33.781Z,935.89
2018-06-20T02:12:46.288Z,935.86
2018-06-20T02:12:59.308Z,935.86
2018-06-20T02:13:12.322Z,935.89
2018-06-20T02:13:24.863Z,935.9
2018-06-20T02:13:37.357Z,935.88
2018-06-20T02:13:49.814Z,935.91
2018-06-20T02:14:02.727Z,935.89
2018-06-20T02:14:15.237Z,935.88
2018-06-20T02:14:27.329Z,935.89
2018-06-20T02:14:40.285Z,935.87
2018-06-20T02:14:53.282Z,935.88
2018-06-20T02:15:06.218Z,935.86
2018-06-20T02:15:18.684Z,935.89
2018-06-20T02:15:31.638Z,935.89
2018-06-20T02:15:44.131Z,935.87
2018-06-20T02:15:57.073Z,935.91
2018-06-20T02:16:08.702Z,935.89
2018-06-20T02:16:21.715Z,935.9
2018-06-20T02:16:34.686Z,935.91
2018-06-20T02:16:47.661Z,935.88
2018-06-20T02:17:00.592Z,935.89
2018-06-20T02:17:13.553Z,935.88
2018-06-20T02:17:25.598Z,935.9
2018-06-20T02:17:38.631Z,935.9
2018-06-20T02:17:51.084Z,935.89
2018-06-20T02:18:03.588Z,935.88
2018-06-20T02:18:16.101Z,935.88
2018-06-20T02:18:28.664Z,935.87
2018-06-20T02:18:41.594Z,935.86
2018-06-20T02:18:54.543Z,935.85
2018-06-20T02:19:07.544Z,935.88
2018-06-20T02:19:20.524Z,935.89
2018-06-20T02:19:33.535Z,935.89
2018-06-20T02:19:45.583Z,935.86
2018-06-20T02:19:58.126Z,935.88
2018-06-20T02:20:11.126Z,935.92
2018-06-20T02:20:23.191Z,935.87
2018-06-20T02:20:36.128Z,935.9
2018-06-20T02:20:48.595Z,935.87
2018-06-20T02:21:01.594Z,935.89
2018-06-20T02:21:13.656Z,935.88
2018-06-20T02:21:26.599Z,935.86
2018-06-20T02:21:39.585Z,935.86
2018-06-20T02:21:52.569Z,935.9
2018-06-20T02:22:04.594Z,935.86
2018-06-20T02:22:17.142Z,935.87
2018-06-20T02:22:29.660Z,935.88
2018-06-20T02:22:42.642Z,935.87
2018-06-20T02:22:55.158Z,935.84
2018-06-20T02:23:08.091Z,935.86
2018-06-20T02:23:21.082Z,935.84
2018-06-20T02:23:33.627Z,935.83
2018-06-20T02:23:45.661Z,935.86
2018-06-20T02:23:58.598Z,935.88
2018-06-20T02:24:11.590Z,935.85
2018-06-20T02:24:24.582Z,935.88
2018-06-20T02:24:37.480Z,935.83
2018-06-20T02:24:49.549Z,935.85
2018-06-20T02:25:02.062Z,935.82
2018-06-20T02:25:14.597Z,935.86
2018-06-20T02:25:27.091Z,935.89
2018-06-20T02:25:38.700Z,935.86
2018-06-20T02:25:51.272Z,935.85
2018-06-20T02:26:03.772Z,935.85
2018-06-20T02:26:16.261Z,935.82
2018-06-20T02:26:29.255Z,935.87
2018-06-20T02:26:41.714Z,935.9
2018-06-20T02:26:54.682Z,935.83
2018-06-20T02:27:07.132Z,935.86
2018-06-20T02:27:19.165Z,935.84
2018-06-20T02:27:31.658Z,935.8
2018-06-20T02:27:44.565Z,935.8
2018-06-20T02:27:57.091Z,935.81
2018-06-20T02:28:08.685Z,935.8
2018-06-20T02:28:21.684Z,935.8
2018-06-20T02:28:34.687Z,935.82
2018-06-20T02:28:47.707Z,935.82
2018-06-20T02:29:00.655Z,935.84
2018-06-20T02:29:13.207Z,935.8
2018-06-20T02:29:25.709Z,935.82
2018-06-20T02:29:38.698Z,935.78
2018-06-20T02:29:51.198Z,935.8
2018-06-20T02:30:02.852Z,935.81
2018-06-20T02:30:14.836Z,935.79
2018-06-20T02:30:27.841Z,935.82
2018-06-20T02:30:40.386Z,935.83
2018-06-20T02:30:53.442Z,935.81
2018-06-20T02:31:05.500Z,935.8
2018-06-20T02:31:17.084Z,935.82
2018-06-20T02:31:29.561Z,935.8
2018-06-20T02:31:41.598Z,935.82
2018-06-20T02:31:54.118Z,935.77
2018-06-20T02:32:07.117Z,935.8
2018-06-20T02:32:19.591Z,935.82
2018-06-20T02:32:32.583Z,935.79
2018-06-20T02:32:45.577Z,935.78
2018-06-20T02:32:57.609Z,935.81
2018-06-20T02:33:10.150Z,935.8
2018-06-20T02:33:23.158Z,935.78
2018-06-20T02:33:35.134Z,935.78
2018-06-20T02:33:48.136Z,935.81
2018-06-20T02:34:01.151Z,935.82
2018-06-20T02:34:13.195Z,935.83
2018-06-20T02:34:25.287Z,935.78
2018-06-20T02:34:38.298Z,935.8
2018-06-20T02:34:51.244Z,935.78
2018-06-20T02:35:04.242Z,935.81
2018-06-20T02:35:17.227Z,935.79
2018-06-20T02:35:30.188Z,935.78
2018-06-20T02:35:43.137Z,935.8
2018-06-20T02:35:55.168Z,935.8
2018-06-20T02:36:08.147Z,935.79
2018-06-20T02:36:20.212Z,935.78
2018-06-20T02:36:32.809Z,935.79
2018-06-20T02:36:46.214Z,935.78
2018-06-20T02:36:59.478Z,935.77
2018-06-20T02:37:11.530Z,935.8
2018-06-20T02:37:24.505Z,935.78
2018-06-20T02:37:36.990Z,935.78
2018-06-20T02:37:49.900Z,935.76
2018-06-20T02:38:02.384Z,935.73
2018-06-20T02:38:14.857Z,935.76
2018-06-20T02:38:30.611Z,935.78